ADDS METAR Data INFO
IDs: Format: Raw Decoded Include TAF

Data at: 0346 UTC 18 Oct 2017

PAHN 180254Z AUTO 11012G21KT 070V130 10SM FEW065 BKN080 OVC100 06/03 A2953 RMK AO2 SLP002 60000 T00560028 58010 TSNO
PAHN 180202Z AUTO 11012G23KT 080V140 10SM SCT017 BKN037 OVC090 06/03 A2954 RMK AO2 T00560033 TSNO
PAHN 180154Z AUTO 09007G15KT 040V140 10SM BKN016 BKN032 OVC060 06/03 A2954 RMK AO2 RAB0056E49 SLP004 P0000 T00560033 TSNO
PAHN 180054Z AUTO 11011G18KT 10SM FEW019 SCT050 OVC075 06/03 A2956 RMK AO2 RAB34E51 SLP011 P0000 T00610033 TSNO
PAHN 172354Z AUTO 10010G17KT 10SM OVC080 07/03 A2956 RMK AO2 SLP013 T00670033 10072 20050 58003 TSNO
PAHN 172254Z AUTO 11012G21KT 10SM BKN075 OVC085 07/04 A2957 RMK AO2 SLP017 T00670039 TSNO
PAHN 172227Z AUTO 11011G18KT 10SM SCT016 BKN070 OVC085 07/03 A2957 RMK AO2 T00670033 TSNO
PAHN 172220Z AUTO 12009G20KT 10SM BKN016 BKN070 OVC080 07/04 A2957 RMK AO2 T00670039 TSNO
PAHN 172154Z AUTO 12010G22KT 10SM SCT015 OVC075 06/04 A2957 RMK AO2 SLP016 T00560039 TSNO
PAHN 172139Z AUTO 11010G20KT 10SM SCT015 BKN070 OVC080 06/04 A2957 RMK AO2 T00560039 TSNO
PAHN 172054Z AUTO 12014G18KT 10SM BKN015 BKN020 OVC027 07/04 A2957 RMK AO2 SLP016 T00670039 51006 TSNO
PAHN 172013Z AUTO 12011G18KT 10SM SCT016 BKN029 OVC075 07/04 A2957 RMK AO2 T00670039 TSNO
PAHN 172004Z AUTO 11008G20KT 10SM SCT016 SCT025 OVC075 07/03 A2957 RMK AO2 T00670033 TSNO
PAHN 171954Z AUTO 11012G18KT 080V150 10SM SCT016 BKN026 OVC075 07/04 A2957 RMK AO2 SLP014 T00670039 TSNO
PAHN 171936Z AUTO 11012G18KT 10SM BKN015 OVC025 07/03 A2956 RMK AO2 T00670033 TSNO
PAHN 171915Z AUTO 12014G20KT 10SM OVC014 07/04 A2956 RMK AO2 T00670039 TSNO
PAHN 171854Z AUTO 11009G16KT 080V150 10SM OVC015 06/03 A2956 RMK AO2 SLP012 T00610033 TSNO
PAHN 171754Z AUTO 09007KT 10SM BKN016 OVC028 06/03 A2955 RMK AO2 SLP010 T00560033 10056 20033 53005 TSNO
PAHN 171654Z AUTO 08010KT 050V120 10SM BKN018 OVC070 06/03 A2954 RMK AO2 SLP007 T00560028 TSNO
PAHN 171554Z AUTO 09005KT 10SM SCT019 BKN024 BKN065 06/03 A2954 RMK AO2 SLP007 T00560028 TSNO
PAHN 171522Z AUTO 07008KT 10SM SCT025 06/02 A2954 RMK AO2 T00560022 TSNO
PAHN 171503Z AUTO 08007KT 10SM FEW015 BKN025 BKN070 06/03 A2954 RMK AO2 T00560028 TSNO
PAHN 171454Z AUTO 08006KT 10SM SCT018 SCT026 BKN070 06/03 A2954 RMK AO2 SLP005 T00560028 53004 TSNO
PAHN 171354Z AUTO 04004KT 10SM OVC021 06/03 A2953 RMK AO2 SLP003 T00560033 TSNO
PAHN 171316Z AUTO 30004KT 10SM BKN029 BKN070 04/03 A2953 RMK AO2 T00390033 TSNO
PAHN 171254Z AUTO 30003KT 10SM SCT021 BKN031 OVC080 04/03 A2953 RMK AO2 SLP002 T00390033 TSNO
PAHN 171224Z AUTO 28003KT 10SM BKN023 BKN100 OVC110 04/03 A2953 RMK AO2 T00390033 TSNO
PAHN 171154Z AUTO 30004KT 10SM FEW022 BKN075 BKN110 04/03 A2953 RMK AO2 SLP001 60000 T00390033 10061 20033 50001 TSNO
PAHN 171116Z AUTO 31003KT 10SM SCT019 OVC030 04/03 A2953 RMK AO2 T00390033 TSNO
PAHN 171054Z AUTO 29003KT 10SM BKN018 OVC085 03/03 A2953 RMK AO2 SLP004 T00330033 TSNO
PAHN 171009Z AUTO 30004KT 10SM FEW017 BKN060 OVC090 04/03 A2953 RMK AO2 T00440033 TSNO
PAHN 170954Z AUTO 30006KT 10SM BKN017 OVC060 04/03 A2953 RMK AO2 SLP003 T00440033 TSNO
PAHN 170910Z AUTO 32004KT 10SM BKN019 OVC100 04/03 A2953 RMK AO2 T00440033 TSNO
PAHN 170854Z AUTO 00000KT 10SM SCT020 BKN110 04/03 A2953 RMK AO2 SLP000 60000 T00390033 400780039 52006 TSNO
PAHN 170754Z AUTO VRB03KT 10SM FEW018 SCT070 OVC110 06/03 A2952 RMK AO2 RAE01 SLP998 P0000 T00610033 TSNO
PAHN 170654Z AUTO 07005KT 10SM -RA SCT043 BKN050 OVC075 06/03 A2951 RMK AO2 RAB0555E05B44 SLP996 P0000 T00610033 TSNO
PAHN 170607Z AUTO 07005KT 10SM SCT015 SCT037 OVC075 06/04 A2951 RMK AO2 RAB0555E05 P0000 T00610039 TSNO
PAHN 170554Z AUTO 08005KT 10SM BKN015 BKN039 OVC050 06/04 A2951 RMK AO2 SLP994 60000 T00610039 10072 20056 51007 TSNO
PAHN 170508Z AUTO VRB04KT 10SM SCT016 BKN038 OVC110 06/04 A2950 RMK AO2 T00610039 TSNO
PAHN 170454Z AUTO 08005KT 10SM BKN017 OVC038 06/04 A2950 RMK AO2 SLP993 T00610039 TSNO
PAHN 170443Z AUTO VRB03KT 10SM BKN015 OVC020 06/04 A2950 RMK AO2 T00560039 TSNO
PAHN 170354Z AUTO VRB04KT 10SM OVC013 06/04 A2950 RMK AO2 RAE23 SLP990 P0000 T00610039 TSNO
PAHN 170254Z AUTO 11008KT 070V140 10SM -RA OVC013 06/04 A2949 RMK AO2 RAB53 SLP987 P0000 60000 T00610039 52001 TSNO
PAHN 170219Z AUTO 09008KT 10SM BKN013 OVC031 07/04 A2948 RMK AO2 T00670044 TSNO
PAHN 170208Z AUTO 07008KT 10SM BKN015 OVC031 07/04 A2949 RMK AO2 T00670044 TSNO
PAHN 170154Z AUTO 09007KT 10SM BKN014 OVC031 07/04 A2949 RMK AO2 SLP987 T00670044 TSNO
PAHN 170109Z AUTO 09007KT 10SM BKN014 OVC030 07/04 A2948 RMK AO2 T00670039 TSNO
PAHN 170054Z AUTO 08006KT 10SM BKN015 OVC027 07/04 A2948 RMK AO2 SLP986 T00670039 TSNO
PAHN 170013Z AUTO 11009G18KT 10SM BKN015 OVC023 07/04 A2948 RMK AO2 T00670044 TSNO
PAHN 162354Z AUTO 11009G16KT 10SM OVC013 07/04 A2948 RMK AO2 RAB10E28 SLP986 P0000 60000 T00670044 10078 20056 50001 TSNO
PAHN 162313Z AUTO 09005KT 8SM -RA BKN014 BKN018 OVC030 07/04 A2948 RMK AO2 RAB10 P0000 T00670044 TSNO
PAHN 162254Z AUTO 10007G14KT 10SM FEW016 BKN026 OVC034 07/04 A2949 RMK AO2 SLP988 T00670044 TSNO
PAHN 162232Z AUTO 09010G20KT 10SM SCT014 BKN027 OVC035 06/04 A2949 RMK AO2 T00610044 TSNO
PAHN 162154Z AUTO 11008G17KT 080V140 10SM BKN014 BKN022 OVC029 06/04 A2948 RMK AO2 SLP985 T00610044 TSNO
PAHN 162054Z AUTO 10008KT 070V140 10SM SCT014 OVC026 07/04 A2948 RMK AO2 RAB03E12 SLP985 P0000 60000 T00720044 57000 TSNO
PAHN 161954Z AUTO 13008KT 090V170 10SM BKN013 OVC021 07/04 A2948 RMK AO2 SLP984 T00720044 TSNO
PAHN 161941Z AUTO 11007G16KT 10SM BKN014 OVC021 07/04 A2948 RMK AO2 T00670044 TSNO
PAHN 161923Z AUTO 10009KT 10SM BKN016 OVC023 07/04 A2948 RMK AO2 T00670044 TSNO
PAHN 161854Z AUTO 11007KT 10SM OVC014 07/04 A2948 RMK AO2 SLP985 T00670044 TSNO
PAHN 161754Z AUTO 10006G15KT 10SM OVC014 07/04 A2948 RMK AO2 RAB1659E09 SLP985 P0000 60000 T00670044 10067 20061 55005 TSNO
PAHN 161750Z AUTO 12011KT 10SM OVC014 07/04 A2948 RMK AO2 RAB1659E09 P0000 TSNO
PAHN 161716Z AUTO 09008KT 10SM OVC016 07/04 A2948 RMK AO2 RAB1659E09 P0000 T00670039 TSNO
PAHN 161654Z AUTO 08006KT 10SM OVC014 07/04 A2948 RMK AO2 SLP987 T00670044 TSNO
PAHN 161637Z AUTO 08008G18KT 10SM OVC013 07/04 A2949 RMK AO2 T00670044 TSNO
PAHN 161606Z AUTO 09008G15KT 10SM BKN016 BKN075 06/04 A2949 RMK AO2 T00610044 TSNO
PAHN 161554Z AUTO 10009KT 10SM SCT016 BKN075 BKN110 06/04 A2949 RMK AO2 SLP990 T00610039 TSNO